sensor_id;sensor_type;location;lat;lon;timestamp;P1;durP1;ratioP1;P2;durP2;ratioP2
75016;SDS011;63577;39.766;2.720;2023-05-16T00:02:17;4.90;;;2.70;;
75016;SDS011;63577;39.766;2.720;2023-05-16T00:04:43;5.10;;;2.70;;
75016;SDS011;63577;39.766;2.720;2023-05-16T00:07:09;5.10;;;2.60;;
75016;SDS011;63577;39.766;2.720;2023-05-16T00:09:35;4.70;;;2.90;;
75016;SDS011;63577;39.766;2.720;2023-05-16T00:12:00;4.90;;;3.00;;
75016;SDS011;63577;39.766;2.720;2023-05-16T00:14:26;4.80;;;2.90;;
75016;SDS011;63577;39.766;2.720;2023-05-16T00:16:53;5.60;;;3.40;;
75016;SDS011;63577;39.766;2.720;2023-05-16T00:19:18;5.80;;;2.90;;
75016;SDS011;63577;39.766;2.720;2023-05-16T00:21:44;7.40;;;3.00;;
75016;SDS011;63577;39.766;2.720;2023-05-16T00:24:10;6.00;;;3.10;;
75016;SDS011;63577;39.766;2.720;2023-05-16T00:26:35;4.70;;;3.20;;
75016;SDS011;63577;39.766;2.720;2023-05-16T00:29:00;5.50;;;3.50;;
75016;SDS011;63577;39.766;2.720;2023-05-16T00:31:26;6.10;;;3.50;;
75016;SDS011;63577;39.766;2.720;2023-05-16T00:33:52;5.40;;;3.40;;
75016;SDS011;63577;39.766;2.720;2023-05-16T00:36:18;5.70;;;3.60;;
75016;SDS011;63577;39.766;2.720;2023-05-16T00:38:44;5.90;;;3.60;;
75016;SDS011;63577;39.766;2.720;2023-05-16T00:41:09;4.90;;;3.30;;
75016;SDS011;63577;39.766;2.720;2023-05-16T00:43:35;5.70;;;3.30;;
75016;SDS011;63577;39.766;2.720;2023-05-16T00:46:00;4.50;;;2.90;;
75016;SDS011;63577;39.766;2.720;2023-05-16T00:48:26;5.30;;;3.30;;
75016;SDS011;63577;39.766;2.720;2023-05-16T00:50:51;6.40;;;3.40;;
75016;SDS011;63577;39.766;2.720;2023-05-16T00:53:17;5.20;;;3.40;;
75016;SDS011;63577;39.766;2.720;2023-05-16T00:55:42;5.30;;;3.20;;
75016;SDS011;63577;39.766;2.720;2023-05-16T00:58:08;5.20;;;3.30;;
75016;SDS011;63577;39.766;2.720;2023-05-16T01:00:35;5.10;;;3.30;;
75016;SDS011;63577;39.766;2.720;2023-05-16T01:03:00;5.30;;;2.90;;
75016;SDS011;63577;39.766;2.720;2023-05-16T01:05:26;4.60;;;3.00;;
75016;SDS011;63577;39.766;2.720;2023-05-16T01:07:52;4.50;;;3.10;;
75016;SDS011;63577;39.766;2.720;2023-05-16T01:10:17;4.90;;;3.00;;
75016;SDS011;63577;39.766;2.720;2023-05-16T01:15:09;4.70;;;3.40;;
75016;SDS011;63577;39.766;2.720;2023-05-16T01:25:20;5.40;;;2.70;;
75016;SDS011;63577;39.766;2.720;2023-05-16T01:27:46;6.20;;;3.30;;
75016;SDS011;63577;39.766;2.720;2023-05-16T01:30:16;5.90;;;3.30;;
75016;SDS011;63577;39.766;2.720;2023-05-16T01:32:41;6.00;;;3.00;;
75016;SDS011;63577;39.766;2.720;2023-05-16T01:35:07;5.80;;;3.20;;
75016;SDS011;63577;39.766;2.720;2023-05-16T01:37:35;5.50;;;4.00;;
75016;SDS011;63577;39.766;2.720;2023-05-16T01:40:03;6.20;;;4.00;;
75016;SDS011;63577;39.766;2.720;2023-05-16T01:42:34;5.40;;;3.00;;
75016;SDS011;63577;39.766;2.720;2023-05-16T01:45:09;5.50;;;3.90;;
75016;SDS011;63577;39.766;2.720;2023-05-16T01:47:39;5.20;;;3.30;;
75016;SDS011;63577;39.766;2.720;2023-05-16T01:52:31;5.30;;;3.50;;
75016;SDS011;63577;39.766;2.720;2023-05-16T01:54:59;5.50;;;3.70;;
75016;SDS011;63577;39.766;2.720;2023-05-16T01:57:25;5.90;;;3.60;;
75016;SDS011;63577;39.766;2.720;2023-05-16T01:59:51;6.60;;;4.00;;
75016;SDS011;63577;39.766;2.720;2023-05-16T02:02:17;5.90;;;3.60;;
75016;SDS011;63577;39.766;2.720;2023-05-16T02:04:42;5.80;;;3.50;;
75016;SDS011;63577;39.766;2.720;2023-05-16T02:07:08;6.70;;;3.20;;
75016;SDS011;63577;39.766;2.720;2023-05-16T02:09:33;5.50;;;3.60;;
75016;SDS011;63577;39.766;2.720;2023-05-16T02:11:59;4.90;;;3.10;;
75016;SDS011;63577;39.766;2.720;2023-05-16T02:14:24;6.30;;;3.20;;
75016;SDS011;63577;39.766;2.720;2023-05-16T02:16:50;6.20;;;3.00;;
75016;SDS011;63577;39.766;2.720;2023-05-16T02:19:15;5.50;;;3.10;;
75016;SDS011;63577;39.766;2.720;2023-05-16T02:21:41;5.30;;;3.00;;
75016;SDS011;63577;39.766;2.720;2023-05-16T02:24:06;7.10;;;3.80;;
75016;SDS011;63577;39.766;2.720;2023-05-16T02:26:31;6.40;;;2.70;;
75016;SDS011;63577;39.766;2.720;2023-05-16T02:28:57;6.60;;;3.00;;
75016;SDS011;63577;39.766;2.720;2023-05-16T02:31:29;6.60;;;2.50;;
75016;SDS011;63577;39.766;2.720;2023-05-16T02:33:55;6.20;;;2.30;;
75016;SDS011;63577;39.766;2.720;2023-05-16T02:36:20;8.10;;;2.90;;
75016;SDS011;63577;39.766;2.720;2023-05-16T02:38:46;11.00;;;3.00;;
75016;SDS011;63577;39.766;2.720;2023-05-16T02:41:11;5.50;;;2.50;;
75016;SDS011;63577;39.766;2.720;2023-05-16T02:43:36;6.60;;;2.40;;
75016;SDS011;63577;39.766;2.720;2023-05-16T02:46:05;6.20;;;2.50;;
75016;SDS011;63577;39.766;2.720;2023-05-16T02:48:43;7.50;;;2.40;;
75016;SDS011;63577;39.766;2.720;2023-05-16T02:51:09;8.30;;;1.80;;
75016;SDS011;63577;39.766;2.720;2023-05-16T02:53:34;7.50;;;2.10;;
75016;SDS011;63577;39.766;2.720;2023-05-16T02:55:59;5.80;;;2.60;;
75016;SDS011;63577;39.766;2.720;2023-05-16T02:58:25;7.30;;;1.90;;
75016;SDS011;63577;39.766;2.720;2023-05-16T03:00:50;9.00;;;2.00;;
75016;SDS011;63577;39.766;2.720;2023-05-16T03:03:17;12.30;;;2.10;;
75016;SDS011;63577;39.766;2.720;2023-05-16T03:05:42;7.20;;;2.10;;
75016;SDS011;63577;39.766;2.720;2023-05-16T03:08:07;7.10;;;2.00;;
75016;SDS011;63577;39.766;2.720;2023-05-16T03:10:33;7.60;;;2.00;;
75016;SDS011;63577;39.766;2.720;2023-05-16T03:12:58;8.70;;;1.90;;
75016;SDS011;63577;39.766;2.720;2023-05-16T03:15:24;6.60;;;2.00;;
75016;SDS011;63577;39.766;2.720;2023-05-16T03:17:49;6.40;;;1.90;;
75016;SDS011;63577;39.766;2.720;2023-05-16T03:20:15;6.90;;;2.00;;
75016;SDS011;63577;39.766;2.720;2023-05-16T03:22:40;12.50;;;2.60;;
75016;SDS011;63577;39.766;2.720;2023-05-16T03:25:06;7.60;;;2.20;;
75016;SDS011;63577;39.766;2.720;2023-05-16T03:27:32;5.60;;;1.80;;
75016;SDS011;63577;39.766;2.720;2023-05-16T03:29:57;7.40;;;1.90;;
75016;SDS011;63577;39.766;2.720;2023-05-16T03:32:22;8.00;;;2.00;;
75016;SDS011;63577;39.766;2.720;2023-05-16T03:34:48;12.00;;;2.00;;
75016;SDS011;63577;39.766;2.720;2023-05-16T03:37:13;8.80;;;1.90;;
75016;SDS011;63577;39.766;2.720;2023-05-16T03:39:40;7.20;;;2.30;;
75016;SDS011;63577;39.766;2.720;2023-05-16T03:42:05;6.30;;;1.60;;
75016;SDS011;63577;39.766;2.720;2023-05-16T03:44:31;8.40;;;1.90;;
75016;SDS011;63577;39.766;2.720;2023-05-16T03:46:57;7.80;;;1.90;;
75016;SDS011;63577;39.766;2.720;2023-05-16T03:49:24;8.60;;;2.10;;
75016;SDS011;63577;39.766;2.720;2023-05-16T03:51:51;13.10;;;2.60;;
75016;SDS011;63577;39.766;2.720;2023-05-16T03:54:16;6.60;;;2.00;;
75016;SDS011;63577;39.766;2.720;2023-05-16T03:56:41;8.70;;;2.40;;
75016;SDS011;63577;39.766;2.720;2023-05-16T03:59:07;7.30;;;1.70;;
75016;SDS011;63577;39.766;2.720;2023-05-16T04:01:32;7.00;;;1.70;;
75016;SDS011;63577;39.766;2.720;2023-05-16T04:03:58;6.90;;;2.10;;
75016;SDS011;63577;39.766;2.720;2023-05-16T04:06:23;9.10;;;2.70;;
75016;SDS011;63577;39.766;2.720;2023-05-16T04:08:48;10.00;;;2.20;;
75016;SDS011;63577;39.766;2.720;2023-05-16T04:11:14;11.00;;;2.10;;
75016;SDS011;63577;39.766;2.720;2023-05-16T04:13:39;10.10;;;2.10;;
75016;SDS011;63577;39.766;2.720;2023-05-16T04:16:05;9.20;;;2.50;;
75016;SDS011;63577;39.766;2.720;2023-05-16T04:18:31;8.30;;;2.00;;
75016;SDS011;63577;39.766;2.720;2023-05-16T04:20:56;8.30;;;1.90;;
75016;SDS011;63577;39.766;2.720;2023-05-16T04:23:22;6.90;;;1.70;;
75016;SDS011;63577;39.766;2.720;2023-05-16T04:25:47;7.20;;;1.90;;
75016;SDS011;63577;39.766;2.720;2023-05-16T04:28:12;7.60;;;1.80;;
75016;SDS011;63577;39.766;2.720;2023-05-16T04:30:38;10.80;;;2.20;;
75016;SDS011;63577;39.766;2.720;2023-05-16T04:33:03;8.50;;;1.70;;
75016;SDS011;63577;39.766;2.720;2023-05-16T04:35:28;10.40;;;2.10;;
75016;SDS011;63577;39.766;2.720;2023-05-16T04:37:54;10.20;;;2.10;;
75016;SDS011;63577;39.766;2.720;2023-05-16T04:40:20;16.60;;;2.60;;
75016;SDS011;63577;39.766;2.720;2023-05-16T04:42:45;12.80;;;2.20;;
75016;SDS011;63577;39.766;2.720;2023-05-16T04:45:11;9.10;;;2.00;;
75016;SDS011;63577;39.766;2.720;2023-05-16T04:47:38;7.90;;;1.70;;
75016;SDS011;63577;39.766;2.720;2023-05-16T04:50:03;7.20;;;2.00;;
75016;SDS011;63577;39.766;2.720;2023-05-16T04:52:29;8.90;;;2.00;;
75016;SDS011;63577;39.766;2.720;2023-05-16T04:54:54;7.20;;;1.70;;
75016;SDS011;63577;39.766;2.720;2023-05-16T04:57:20;6.90;;;2.00;;
75016;SDS011;63577;39.766;2.720;2023-05-16T04:59:45;6.70;;;2.00;;
75016;SDS011;63577;39.766;2.720;2023-05-16T05:02:10;8.80;;;1.80;;
75016;SDS011;63577;39.766;2.720;2023-05-16T05:04:36;7.70;;;1.80;;
75016;SDS011;63577;39.766;2.720;2023-05-16T05:07:02;9.70;;;1.90;;
75016;SDS011;63577;39.766;2.720;2023-05-16T05:09:27;8.30;;;1.70;;
75016;SDS011;63577;39.766;2.720;2023-05-16T05:11:53;7.70;;;2.00;;
75016;SDS011;63577;39.766;2.720;2023-05-16T05:14:18;9.90;;;2.00;;
75016;SDS011;63577;39.766;2.720;2023-05-16T05:16:43;7.10;;;2.20;;
75016;SDS011;63577;39.766;2.720;2023-05-16T05:19:09;7.80;;;2.00;;
75016;SDS011;63577;39.766;2.720;2023-05-16T05:21:34;7.30;;;1.70;;
75016;SDS011;63577;39.766;2.720;2023-05-16T05:24:00;8.80;;;2.40;;
75016;SDS011;63577;39.766;2.720;2023-05-16T05:26:25;7.50;;;2.00;;
75016;SDS011;63577;39.766;2.720;2023-05-16T05:28:51;10.10;;;2.30;;
75016;SDS011;63577;39.766;2.720;2023-05-16T05:31:17;8.80;;;2.10;;
75016;SDS011;63577;39.766;2.720;2023-05-16T05:33:42;10.50;;;2.50;;
75016;SDS011;63577;39.766;2.720;2023-05-16T05:36:07;8.00;;;1.80;;
75016;SDS011;63577;39.766;2.720;2023-05-16T05:38:33;9.10;;;2.20;;
75016;SDS011;63577;39.766;2.720;2023-05-16T05:40:59;7.90;;;2.40;;
75016;SDS011;63577;39.766;2.720;2023-05-16T05:43:24;8.30;;;2.30;;
75016;SDS011;63577;39.766;2.720;2023-05-16T05:45:50;11.80;;;2.40;;
75016;SDS011;63577;39.766;2.720;2023-05-16T05:48:15;9.30;;;2.40;;
75016;SDS011;63577;39.766;2.720;2023-05-16T05:50:40;9.60;;;2.30;;
75016;SDS011;63577;39.766;2.720;2023-05-16T05:53:06;8.10;;;1.90;;
75016;SDS011;63577;39.766;2.720;2023-05-16T05:55:31;6.90;;;1.90;;
75016;SDS011;63577;39.766;2.720;2023-05-16T05:57:57;8.90;;;2.30;;
75016;SDS011;63577;39.766;2.720;2023-05-16T06:00:22;6.40;;;2.00;;
75016;SDS011;63577;39.766;2.720;2023-05-16T06:02:47;10.60;;;2.30;;
75016;SDS011;63577;39.766;2.720;2023-05-16T06:05:13;7.80;;;1.90;;
75016;SDS011;63577;39.766;2.720;2023-05-16T06:07:38;9.20;;;2.20;;
75016;SDS011;63577;39.766;2.720;2023-05-16T06:10:04;7.70;;;1.80;;
75016;SDS011;63577;39.766;2.720;2023-05-16T06:12:30;9.30;;;2.20;;
75016;SDS011;63577;39.766;2.720;2023-05-16T06:14:56;10.10;;;2.20;;
75016;SDS011;63577;39.766;2.720;2023-05-16T06:17:21;8.90;;;2.20;;
75016;SDS011;63577;39.766;2.720;2023-05-16T06:19:46;8.20;;;2.40;;
75016;SDS011;63577;39.766;2.720;2023-05-16T06:22:12;10.40;;;2.30;;
75016;SDS011;63577;39.766;2.720;2023-05-16T06:24:37;10.50;;;2.50;;
75016;SDS011;63577;39.766;2.720;2023-05-16T06:27:02;11.00;;;2.20;;
75016;SDS011;63577;39.766;2.720;2023-05-16T06:29:28;10.30;;;2.20;;
75016;SDS011;63577;39.766;2.720;2023-05-16T06:31:53;8.30;;;2.20;;
75016;SDS011;63577;39.766;2.720;2023-05-16T06:34:18;8.80;;;2.20;;
75016;SDS011;63577;39.766;2.720;2023-05-16T06:36:47;12.50;;;2.40;;
75016;SDS011;63577;39.766;2.720;2023-05-16T06:39:13;9.80;;;2.30;;
75016;SDS011;63577;39.766;2.720;2023-05-16T06:41:38;10.40;;;2.30;;
75016;SDS011;63577;39.766;2.720;2023-05-16T06:44:04;8.20;;;2.30;;
75016;SDS011;63577;39.766;2.720;2023-05-16T06:46:29;9.40;;;2.40;;
75016;SDS011;63577;39.766;2.720;2023-05-16T06:48:55;7.60;;;2.40;;
75016;SDS011;63577;39.766;2.720;2023-05-16T06:51:20;8.40;;;2.10;;
75016;SDS011;63577;39.766;2.720;2023-05-16T06:53:45;7.00;;;1.80;;
75016;SDS011;63577;39.766;2.720;2023-05-16T06:56:11;8.80;;;2.10;;
75016;SDS011;63577;39.766;2.720;2023-05-16T06:58:36;13.70;;;2.50;;
75016;SDS011;63577;39.766;2.720;2023-05-16T07:01:02;8.40;;;1.80;;
75016;SDS011;63577;39.766;2.720;2023-05-16T07:03:27;8.90;;;2.00;;
75016;SDS011;63577;39.766;2.720;2023-05-16T07:05:52;9.30;;;2.00;;
75016;SDS011;63577;39.766;2.720;2023-05-16T07:08:18;9.60;;;2.30;;
75016;SDS011;63577;39.766;2.720;2023-05-16T07:10:43;8.00;;;2.30;;
75016;SDS011;63577;39.766;2.720;2023-05-16T07:13:09;10.50;;;2.40;;
75016;SDS011;63577;39.766;2.720;2023-05-16T07:15:34;9.00;;;2.10;;
75016;SDS011;63577;39.766;2.720;2023-05-16T07:18:00;10.00;;;2.30;;
75016;SDS011;63577;39.766;2.720;2023-05-16T07:20:25;11.10;;;2.20;;
75016;SDS011;63577;39.766;2.720;2023-05-16T07:22:50;10.30;;;2.30;;
75016;SDS011;63577;39.766;2.720;2023-05-16T07:25:16;9.50;;;2.50;;
75016;SDS011;63577;39.766;2.720;2023-05-16T07:27:41;8.50;;;2.30;;
75016;SDS011;63577;39.766;2.720;2023-05-16T07:30:09;11.70;;;2.60;;
75016;SDS011;63577;39.766;2.720;2023-05-16T07:32:35;10.90;;;2.30;;
75016;SDS011;63577;39.766;2.720;2023-05-16T07:35:02;11.40;;;2.40;;
75016;SDS011;63577;39.766;2.720;2023-05-16T07:37:28;10.10;;;2.30;;
75016;SDS011;63577;39.766;2.720;2023-05-16T07:39:53;10.90;;;2.40;;
75016;SDS011;63577;39.766;2.720;2023-05-16T07:42:18;7.10;;;2.30;;
75016;SDS011;63577;39.766;2.720;2023-05-16T07:44:44;10.50;;;2.50;;
75016;SDS011;63577;39.766;2.720;2023-05-16T07:47:09;9.80;;;2.40;;
75016;SDS011;63577;39.766;2.720;2023-05-16T07:49:34;8.20;;;2.40;;
75016;SDS011;63577;39.766;2.720;2023-05-16T07:52:00;11.10;;;2.60;;
75016;SDS011;63577;39.766;2.720;2023-05-16T07:54:25;9.70;;;2.60;;
75016;SDS011;63577;39.766;2.720;2023-05-16T07:56:50;9.70;;;2.80;;
75016;SDS011;63577;39.766;2.720;2023-05-16T07:59:16;10.40;;;2.70;;
75016;SDS011;63577;39.766;2.720;2023-05-16T08:01:41;12.40;;;3.10;;
75016;SDS011;63577;39.766;2.720;2023-05-16T08:04:06;10.40;;;2.80;;
75016;SDS011;63577;39.766;2.720;2023-05-16T08:06:32;10.80;;;2.60;;
75016;SDS011;63577;39.766;2.720;2023-05-16T08:08:58;11.30;;;2.70;;
75016;SDS011;63577;39.766;2.720;2023-05-16T08:11:24;8.60;;;2.30;;
75016;SDS011;63577;39.766;2.720;2023-05-16T08:13:49;10.70;;;2.20;;
75016;SDS011;63577;39.766;2.720;2023-05-16T08:16:15;10.40;;;2.50;;
75016;SDS011;63577;39.766;2.720;2023-05-16T08:18:40;10.80;;;2.50;;
75016;SDS011;63577;39.766;2.720;2023-05-16T08:21:06;11.90;;;2.40;;
75016;SDS011;63577;39.766;2.720;2023-05-16T08:23:33;8.70;;;2.50;;
75016;SDS011;63577;39.766;2.720;2023-05-16T08:25:58;10.30;;;2.40;;
75016;SDS011;63577;39.766;2.720;2023-05-16T08:28:24;13.70;;;2.70;;
75016;SDS011;63577;39.766;2.720;2023-05-16T08:30:49;9.70;;;2.70;;
75016;SDS011;63577;39.766;2.720;2023-05-16T08:33:15;11.90;;;2.70;;
75016;SDS011;63577;39.766;2.720;2023-05-16T08:35:43;11.10;;;2.50;;
75016;SDS011;63577;39.766;2.720;2023-05-16T08:38:09;11.00;;;2.60;;
75016;SDS011;63577;39.766;2.720;2023-05-16T08:40:34;11.20;;;3.00;;
75016;SDS011;63577;39.766;2.720;2023-05-16T08:43:00;10.30;;;2.60;;
75016;SDS011;63577;39.766;2.720;2023-05-16T08:45:25;16.10;;;2.70;;
75016;SDS011;63577;39.766;2.720;2023-05-16T08:47:52;13.40;;;2.80;;
75016;SDS011;63577;39.766;2.720;2023-05-16T08:50:18;10.90;;;2.50;;
75016;SDS011;63577;39.766;2.720;2023-05-16T08:52:43;12.20;;;2.60;;
75016;SDS011;63577;39.766;2.720;2023-05-16T08:55:11;9.30;;;2.50;;
75016;SDS011;63577;39.766;2.720;2023-05-16T08:57:38;10.30;;;2.70;;
75016;SDS011;63577;39.766;2.720;2023-05-16T09:00:07;11.10;;;2.60;;
75016;SDS011;63577;39.766;2.720;2023-05-16T09:02:42;8.80;;;2.60;;
75016;SDS011;63577;39.766;2.720;2023-05-16T09:05:10;9.20;;;2.60;;
75016;SDS011;63577;39.766;2.720;2023-05-16T09:07:35;10.60;;;2.70;;
75016;SDS011;63577;39.766;2.720;2023-05-16T09:10:01;9.90;;;2.40;;
75016;SDS011;63577;39.766;2.720;2023-05-16T09:12:26;12.20;;;2.90;;
75016;SDS011;63577;39.766;2.720;2023-05-16T09:14:52;11.30;;;2.80;;
75016;SDS011;63577;39.766;2.720;2023-05-16T09:17:17;8.20;;;2.50;;
75016;SDS011;63577;39.766;2.720;2023-05-16T09:19:43;9.20;;;2.30;;
75016;SDS011;63577;39.766;2.720;2023-05-16T09:22:10;16.60;;;2.80;;
75016;SDS011;63577;39.766;2.720;2023-05-16T09:24:38;10.30;;;2.80;;
75016;SDS011;63577;39.766;2.720;2023-05-16T09:27:14;9.80;;;2.50;;
75016;SDS011;63577;39.766;2.720;2023-05-16T09:29:43;10.30;;;2.70;;
75016;SDS011;63577;39.766;2.720;2023-05-16T09:32:09;12.20;;;2.60;;
75016;SDS011;63577;39.766;2.720;2023-05-16T09:34:38;8.70;;;2.40;;
75016;SDS011;63577;39.766;2.720;2023-05-16T09:37:04;9.20;;;2.50;;
75016;SDS011;63577;39.766;2.720;2023-05-16T09:39:30;11.60;;;2.40;;
75016;SDS011;63577;39.766;2.720;2023-05-16T09:41:57;11.00;;;2.70;;
75016;SDS011;63577;39.766;2.720;2023-05-16T09:44:22;7.10;;;2.20;;
75016;SDS011;63577;39.766;2.720;2023-05-16T09:46:48;9.10;;;2.50;;
75016;SDS011;63577;39.766;2.720;2023-05-16T09:49:13;9.60;;;2.70;;
75016;SDS011;63577;39.766;2.720;2023-05-16T09:51:39;7.50;;;2.30;;
75016;SDS011;63577;39.766;2.720;2023-05-16T09:54:08;13.30;;;2.70;;
75016;SDS011;63577;39.766;2.720;2023-05-16T09:56:35;11.80;;;3.00;;
75016;SDS011;63577;39.766;2.720;2023-05-16T09:59:13;10.10;;;2.30;;
75016;SDS011;63577;39.766;2.720;2023-05-16T10:01:38;11.20;;;2.60;;
75016;SDS011;63577;39.766;2.720;2023-05-16T10:04:04;11.70;;;2.70;;
75016;SDS011;63577;39.766;2.720;2023-05-16T10:06:29;13.00;;;3.20;;
75016;SDS011;63577;39.766;2.720;2023-05-16T10:08:55;9.70;;;2.50;;
75016;SDS011;63577;39.766;2.720;2023-05-16T10:11:20;12.70;;;2.90;;
75016;SDS011;63577;39.766;2.720;2023-05-16T10:13:47;11.00;;;2.70;;
75016;SDS011;63577;39.766;2.720;2023-05-16T10:16:17;9.90;;;2.90;;
75016;SDS011;63577;39.766;2.720;2023-05-16T10:18:42;12.60;;;2.70;;
75016;SDS011;63577;39.766;2.720;2023-05-16T10:21:09;8.50;;;2.40;;
75016;SDS011;63577;39.766;2.720;2023-05-16T10:23:40;11.30;;;2.50;;
75016;SDS011;63577;39.766;2.720;2023-05-16T10:26:06;8.30;;;2.80;;
75016;SDS011;63577;39.766;2.720;2023-05-16T10:28:33;12.10;;;3.20;;
75016;SDS011;63577;39.766;2.720;2023-05-16T10:30:58;9.30;;;2.70;;
75016;SDS011;63577;39.766;2.720;2023-05-16T10:33:25;13.40;;;2.40;;
75016;SDS011;63577;39.766;2.720;2023-05-16T10:35:51;10.20;;;2.60;;
75016;SDS011;63577;39.766;2.720;2023-05-16T10:38:17;9.90;;;2.70;;
75016;SDS011;63577;39.766;2.720;2023-05-16T10:40:42;13.10;;;2.90;;
75016;SDS011;63577;39.766;2.720;2023-05-16T10:43:08;11.60;;;2.60;;
75016;SDS011;63577;39.766;2.720;2023-05-16T10:45:37;8.70;;;2.30;;
75016;SDS011;63577;39.766;2.720;2023-05-16T10:48:04;7.50;;;2.40;;
75016;SDS011;63577;39.766;2.720;2023-05-16T10:50:40;11.10;;;2.70;;
75016;SDS011;63577;39.766;2.720;2023-05-16T10:53:13;10.50;;;2.40;;
75016;SDS011;63577;39.766;2.720;2023-05-16T10:55:43;8.30;;;2.80;;
75016;SDS011;63577;39.766;2.720;2023-05-16T10:58:08;12.10;;;2.80;;
75016;SDS011;63577;39.766;2.720;2023-05-16T11:00:34;8.20;;;2.40;;
75016;SDS011;63577;39.766;2.720;2023-05-16T11:03:05;8.70;;;2.90;;
75016;SDS011;63577;39.766;2.720;2023-05-16T11:05:43;12.20;;;2.70;;
75016;SDS011;63577;39.766;2.720;2023-05-16T11:08:15;9.20;;;2.70;;
75016;SDS011;63577;39.766;2.720;2023-05-16T11:10:41;9.60;;;2.50;;
75016;SDS011;63577;39.766;2.720;2023-05-16T11:13:06;9.80;;;2.60;;
75016;SDS011;63577;39.766;2.720;2023-05-16T11:15:32;9.60;;;2.60;;
75016;SDS011;63577;39.766;2.720;2023-05-16T11:18:02;8.40;;;2.50;;
75016;SDS011;63577;39.766;2.720;2023-05-16T11:20:29;10.20;;;2.40;;
75016;SDS011;63577;39.766;2.720;2023-05-16T11:25:41;9.00;;;2.60;;
75016;SDS011;63577;39.766;2.720;2023-05-16T11:28:07;10.00;;;2.60;;
75016;SDS011;63577;39.766;2.720;2023-05-16T11:30:33;8.90;;;2.50;;
75016;SDS011;63577;39.766;2.720;2023-05-16T11:32:58;6.80;;;2.40;;
75016;SDS011;63577;39.766;2.720;2023-05-16T11:35:24;6.30;;;2.30;;
75016;SDS011;63577;39.766;2.720;2023-05-16T11:37:49;10.50;;;2.50;;
75016;SDS011;63577;39.766;2.720;2023-05-16T11:40:15;12.00;;;2.70;;
75016;SDS011;63577;39.766;2.720;2023-05-16T11:42:45;8.70;;;2.80;;
75016;SDS011;63577;39.766;2.720;2023-05-16T11:45:15;8.90;;;2.20;;
75016;SDS011;63577;39.766;2.720;2023-05-16T11:47:41;8.80;;;2.30;;
75016;SDS011;63577;39.766;2.720;2023-05-16T11:50:13;8.50;;;3.00;;
75016;SDS011;63577;39.766;2.720;2023-05-16T11:52:39;10.60;;;2.70;;
75016;SDS011;63577;39.766;2.720;2023-05-16T11:55:08;9.00;;;2.30;;
75016;SDS011;63577;39.766;2.720;2023-05-16T11:57:40;8.90;;;2.30;;
75016;SDS011;63577;39.766;2.720;2023-05-16T12:00:15;10.70;;;2.90;;
75016;SDS011;63577;39.766;2.720;2023-05-16T12:02:42;7.90;;;2.30;;
75016;SDS011;63577;39.766;2.720;2023-05-16T12:05:08;9.20;;;2.50;;
75016;SDS011;63577;39.766;2.720;2023-05-16T12:07:37;7.30;;;2.50;;
75016;SDS011;63577;39.766;2.720;2023-05-16T12:10:06;11.40;;;2.60;;
75016;SDS011;63577;39.766;2.720;2023-05-16T12:12:32;10.20;;;2.40;;
75016;SDS011;63577;39.766;2.720;2023-05-16T12:14:58;10.60;;;2.70;;
75016;SDS011;63577;39.766;2.720;2023-05-16T12:17:23;8.60;;;2.40;;
75016;SDS011;63577;39.766;2.720;2023-05-16T12:19:49;9.00;;;2.30;;
75016;SDS011;63577;39.766;2.720;2023-05-16T12:22:21;10.60;;;2.60;;
75016;SDS011;63577;39.766;2.720;2023-05-16T12:24:48;8.20;;;2.50;;
75016;SDS011;63577;39.766;2.720;2023-05-16T12:27:20;7.70;;;2.50;;
75016;SDS011;63577;39.766;2.720;2023-05-16T12:29:46;11.00;;;2.20;;
75016;SDS011;63577;39.766;2.720;2023-05-16T12:32:11;8.60;;;2.50;;
75016;SDS011;63577;39.766;2.720;2023-05-16T12:34:37;7.10;;;2.50;;
75016;SDS011;63577;39.766;2.720;2023-05-16T12:37:02;8.90;;;2.20;;
75016;SDS011;63577;39.766;2.720;2023-05-16T12:39:30;8.40;;;2.60;;
75016;SDS011;63577;39.766;2.720;2023-05-16T12:42:03;11.90;;;2.60;;
75016;SDS011;63577;39.766;2.720;2023-05-16T12:44:29;7.20;;;2.30;;
75016;SDS011;63577;39.766;2.720;2023-05-16T12:46:54;9.40;;;2.00;;
75016;SDS011;63577;39.766;2.720;2023-05-16T12:49:22;10.10;;;2.30;;
75016;SDS011;63577;39.766;2.720;2023-05-16T12:51:51;8.20;;;2.30;;
75016;SDS011;63577;39.766;2.720;2023-05-16T12:54:17;8.10;;;2.00;;
75016;SDS011;63577;39.766;2.720;2023-05-16T12:56:42;6.30;;;1.80;;
75016;SDS011;63577;39.766;2.720;2023-05-16T12:59:08;9.60;;;2.20;;
75016;SDS011;63577;39.766;2.720;2023-05-16T13:01:36;8.70;;;2.10;;
75016;SDS011;63577;39.766;2.720;2023-05-16T13:04:02;7.80;;;1.90;;
75016;SDS011;63577;39.766;2.720;2023-05-16T13:06:28;14.50;;;2.50;;
75016;SDS011;63577;39.766;2.720;2023-05-16T13:08:53;8.40;;;2.10;;
75016;SDS011;63577;39.766;2.720;2023-05-16T13:11:19;8.30;;;2.30;;
75016;SDS011;63577;39.766;2.720;2023-05-16T13:13:45;10.40;;;2.10;;
75016;SDS011;63577;39.766;2.720;2023-05-16T13:16:10;11.70;;;2.40;;
75016;SDS011;63577;39.766;2.720;2023-05-16T13:18:36;8.30;;;2.60;;
75016;SDS011;63577;39.766;2.720;2023-05-16T13:21:02;8.90;;;2.20;;
75016;SDS011;63577;39.766;2.720;2023-05-16T13:23:31;7.80;;;2.40;;
75016;SDS011;63577;39.766;2.720;2023-05-16T13:25:57;9.60;;;2.30;;
75016;SDS011;63577;39.766;2.720;2023-05-16T13:28:23;7.50;;;2.20;;
75016;SDS011;63577;39.766;2.720;2023-05-16T13:30:49;7.30;;;2.20;;
75016;SDS011;63577;39.766;2.720;2023-05-16T13:33:15;9.60;;;2.20;;
75016;SDS011;63577;39.766;2.720;2023-05-16T13:35:40;9.30;;;2.40;;
75016;SDS011;63577;39.766;2.720;2023-05-16T13:38:06;5.90;;;2.00;;
75016;SDS011;63577;39.766;2.720;2023-05-16T13:40:31;8.40;;;2.00;;
75016;SDS011;63577;39.766;2.720;2023-05-16T13:42:57;8.50;;;2.30;;
75016;SDS011;63577;39.766;2.720;2023-05-16T13:45:22;7.60;;;2.10;;
75016;SDS011;63577;39.766;2.720;2023-05-16T13:47:48;7.90;;;2.20;;
75016;SDS011;63577;39.766;2.720;2023-05-16T13:50:13;10.10;;;2.30;;
75016;SDS011;63577;39.766;2.720;2023-05-16T13:52:38;10.50;;;2.30;;
75016;SDS011;63577;39.766;2.720;2023-05-16T13:55:04;7.50;;;2.40;;
75016;SDS011;63577;39.766;2.720;2023-05-16T13:57:30;9.70;;;2.40;;
75016;SDS011;63577;39.766;2.720;2023-05-16T13:59:57;6.40;;;2.40;;
75016;SDS011;63577;39.766;2.720;2023-05-16T14:02:22;7.40;;;2.50;;
75016;SDS011;63577;39.766;2.720;2023-05-16T14:04:50;4.90;;;2.30;;
75016;SDS011;63577;39.766;2.720;2023-05-16T14:07:15;11.10;;;2.10;;
75016;SDS011;63577;39.766;2.720;2023-05-16T14:09:40;6.90;;;2.40;;
75016;SDS011;63577;39.766;2.720;2023-05-16T14:12:06;4.90;;;2.30;;
75016;SDS011;63577;39.766;2.720;2023-05-16T14:14:34;6.00;;;2.00;;
75016;SDS011;63577;39.766;2.720;2023-05-16T14:17:00;7.30;;;2.00;;
75016;SDS011;63577;39.766;2.720;2023-05-16T14:19:26;8.40;;;2.40;;
75016;SDS011;63577;39.766;2.720;2023-05-16T14:21:51;5.60;;;2.20;;
75016;SDS011;63577;39.766;2.720;2023-05-16T14:24:16;7.70;;;2.40;;
75016;SDS011;63577;39.766;2.720;2023-05-16T14:26:42;7.10;;;2.10;;
75016;SDS011;63577;39.766;2.720;2023-05-16T14:29:07;8.10;;;2.30;;
75016;SDS011;63577;39.766;2.720;2023-05-16T14:31:32;6.90;;;2.20;;
75016;SDS011;63577;39.766;2.720;2023-05-16T14:34:00;7.20;;;2.50;;
75016;SDS011;63577;39.766;2.720;2023-05-16T14:36:25;5.20;;;2.30;;
75016;SDS011;63577;39.766;2.720;2023-05-16T14:38:50;6.20;;;2.10;;
75016;SDS011;63577;39.766;2.720;2023-05-16T14:41:16;7.00;;;2.50;;
75016;SDS011;63577;39.766;2.720;2023-05-16T14:43:42;7.90;;;2.50;;
75016;SDS011;63577;39.766;2.720;2023-05-16T14:46:07;5.80;;;2.00;;
75016;SDS011;63577;39.766;2.720;2023-05-16T14:48:33;6.20;;;1.50;;
75016;SDS011;63577;39.766;2.720;2023-05-16T14:50:58;4.30;;;1.50;;
75016;SDS011;63577;39.766;2.720;2023-05-16T14:53:24;3.80;;;1.40;;